createdAt,value
2023-09-19T00:01:54.434Z,17.46
2023-09-19T00:11:54.384Z,17.35
2023-09-19T00:21:54.416Z,17.27
2023-09-19T00:31:55.105Z,17.20
2023-09-19T00:41:55.412Z,17.13
2023-09-19T00:51:55.566Z,17.09
2023-09-19T01:01:55.695Z,17.05
2023-09-19T01:11:55.604Z,17.01
2023-09-19T01:21:56.590Z,16.99
2023-09-19T01:31:57.409Z,16.99
2023-09-19T01:41:58.147Z,17.02
2023-09-19T01:51:58.590Z,17.06
2023-09-19T02:01:58.644Z,17.08
2023-09-19T02:11:59.351Z,17.11
2023-09-19T02:21:59.589Z,17.12
2023-09-19T02:31:59.718Z,17.12
2023-09-19T02:41:59.620Z,17.10
2023-09-19T02:51:59.918Z,17.07
2023-09-19T03:02:00.975Z,17.04
2023-09-19T03:12:01.188Z,17.00
2023-09-19T03:22:04.740Z,16.95
2023-09-19T03:32:05.172Z,16.90
2023-09-19T03:42:08.449Z,16.83
2023-09-19T03:52:08.787Z,16.75
2023-09-19T04:02:10.591Z,16.68
2023-09-19T04:12:10.730Z,16.62
2023-09-19T04:22:12.192Z,16.57
2023-09-19T04:32:13.997Z,16.54
2023-09-19T04:42:15.370Z,16.51
2023-09-19T04:52:16.547Z,16.50
2023-09-19T05:02:16.922Z,16.49
2023-09-19T05:12:18.659Z,16.48
2023-09-19T05:22:19.433Z,16.45
2023-09-19T05:32:20.358Z,16.43
2023-09-19T05:42:20.874Z,16.43
2023-09-19T05:52:22.728Z,16.49
2023-09-19T06:02:22.972Z,16.61
2023-09-19T06:12:22.884Z,16.75
2023-09-19T06:22:22.912Z,16.91
2023-09-19T06:32:22.969Z,17.05
2023-09-19T06:42:23.528Z,17.20
2023-09-19T06:52:23.955Z,17.36
2023-09-19T07:02:24.351Z,17.54
2023-09-19T07:12:24.979Z,17.74
2023-09-19T07:22:25.136Z,17.97
2023-09-19T07:32:25.156Z,18.20
2023-09-19T07:42:25.121Z,18.46
2023-09-19T07:52:28.339Z,18.76
2023-09-19T08:02:29.093Z,19.09
2023-09-19T08:12:29.071Z,19.38
2023-09-19T08:22:29.129Z,19.66
2023-09-19T08:32:29.136Z,19.95
2023-09-19T08:42:29.084Z,20.27
2023-09-19T08:52:29.155Z,20.52
2023-09-19T09:02:29.182Z,20.75
2023-09-19T09:12:29.152Z,21.08
2023-09-19T09:22:29.166Z,21.39
2023-09-19T09:32:29.786Z,21.72
2023-09-19T09:42:32.312Z,22.18
2023-09-19T09:52:32.405Z,22.60
2023-09-19T10:02:34.776Z,22.76
2023-09-19T10:12:36.108Z,22.74
2023-09-19T10:22:36.391Z,22.75
2023-09-19T10:32:36.439Z,22.78
2023-09-19T10:42:37.026Z,22.66
2023-09-19T10:52:38.735Z,22.44
2023-09-19T11:02:39.512Z,22.31
2023-09-19T11:12:41.405Z,22.23
2023-09-19T11:22:42.395Z,22.15
2023-09-19T11:32:42.484Z,22.12
2023-09-19T11:42:42.360Z,22.16
2023-09-19T11:52:42.433Z,22.23
2023-09-19T12:02:42.453Z,22.27
2023-09-19T12:12:42.428Z,22.21
2023-09-19T12:22:44.092Z,22.05
2023-09-19T12:32:44.765Z,21.91
2023-09-19T12:42:45.236Z,21.84
2023-09-19T12:52:48.026Z,21.81
2023-09-19T13:02:48.650Z,21.81
2023-09-19T13:12:48.511Z,21.81
2023-09-19T13:22:50.400Z,21.82
2023-09-19T13:32:50.948Z,21.86
2023-09-19T13:42:54.059Z,21.96
2023-09-19T13:52:54.578Z,22.12
2023-09-19T14:02:54.930Z,22.27
2023-09-19T14:12:54.588Z,22.36
2023-09-19T14:22:54.617Z,22.40
2023-09-19T14:32:54.727Z,22.41
2023-09-19T14:42:54.654Z,22.43
2023-09-19T14:52:54.849Z,22.47
2023-09-19T15:02:56.718Z,22.49
2023-09-19T15:12:56.778Z,22.43
2023-09-19T15:22:58.015Z,22.30
2023-09-19T15:32:57.826Z,22.16
2023-09-19T15:42:57.814Z,22.03
2023-09-19T15:52:58.542Z,21.91
2023-09-19T16:02:59.202Z,21.83
2023-09-19T16:12:59.742Z,21.75
2023-09-19T16:23:00.399Z,21.68
2023-09-19T16:33:00.892Z,21.60
2023-09-19T16:43:01.786Z,21.52
2023-09-19T16:53:01.890Z,21.43
2023-09-19T17:03:02.065Z,21.31
2023-09-19T17:13:03.959Z,21.20
2023-09-19T17:23:03.860Z,21.08
2023-09-19T17:33:05.220Z,20.97
2023-09-19T17:43:05.592Z,20.87
2023-09-19T17:53:06.224Z,20.79
2023-09-19T18:03:06.016Z,20.72
2023-09-19T18:13:06.661Z,20.66
2023-09-19T18:23:06.931Z,20.62
2023-09-19T18:33:07.027Z,20.58
2023-09-19T18:43:06.955Z,20.54
2023-09-19T18:53:07.000Z,20.51
2023-09-19T19:03:07.330Z,20.47
2023-09-19T19:13:08.985Z,20.43
2023-09-19T19:23:10.250Z,20.40
2023-09-19T19:33:10.631Z,20.36
2023-09-19T19:43:11.046Z,20.33
2023-09-19T19:53:11.079Z,20.30
2023-09-19T20:03:11.518Z,20.28
2023-09-19T20:13:13.800Z,20.25
2023-09-19T20:23:14.920Z,20.23
2023-09-19T20:33:15.128Z,20.20
2023-09-19T20:43:15.138Z,20.16
2023-09-19T20:53:15.164Z,20.13
2023-09-19T21:03:17.004Z,20.09
2023-09-19T21:13:17.172Z,20.07
2023-09-19T21:23:17.204Z,20.05
2023-09-19T21:33:18.624Z,20.04
2023-09-19T21:43:18.206Z,20.02
2023-09-19T21:53:19.672Z,20.00
2023-09-19T22:03:20.297Z,19.99
2023-09-19T22:13:21.331Z,19.98
2023-09-19T22:23:23.575Z,19.97
2023-09-19T22:33:23.400Z,19.98
2023-09-19T22:43:25.457Z,19.99
2023-09-19T22:53:27.844Z,19.99
2023-09-19T23:03:30.603Z,19.99
2023-09-19T23:13:33.330Z,19.99
2023-09-19T23:23:34.539Z,19.98
2023-09-19T23:33:36.820Z,19.96
2023-09-19T23:43:39.126Z,19.95
2023-09-19T23:53:39.583Z,19.91
